sensor_id;sensor_type;location;lat;lon;timestamp;pressure;altitude;pressure_sealevel;temperature;humidity
24390;BME280;12510;56.468;-3.004;2023-02-13T00:00:11;102169.09;;;18.68;63.77
24390;BME280;12510;56.468;-3.004;2023-02-13T00:02:39;102187.81;;;15.35;69.08
24390;BME280;12510;56.468;-3.004;2023-02-13T00:05:06;102157.88;;;20.14;55.78
24390;BME280;12510;56.468;-3.004;2023-02-13T00:07:33;102187.94;;;15.55;67.73
24390;BME280;12510;56.468;-3.004;2023-02-13T00:09:59;102191.59;;;15.54;68.75
24390;BME280;12510;56.468;-3.004;2023-02-13T00:12:26;102191.66;;;15.73;69.02
24390;BME280;12510;56.468;-3.004;2023-02-13T00:14:52;102186.31;;;15.64;68.99
24390;BME280;12510;56.468;-3.004;2023-02-13T00:17:19;102177.13;;;17.85;68.13
24390;BME280;12510;56.468;-3.004;2023-02-13T00:19:45;102176.88;;;15.29;70.67
24390;BME280;12510;56.468;-3.004;2023-02-13T00:22:12;102177.56;;;14.88;73.09
24390;BME280;12510;56.468;-3.004;2023-02-13T00:24:38;102174.56;;;16.28;68.14
24390;BME280;12510;56.468;-3.004;2023-02-13T00:27:05;102172.34;;;16.23;66.28
24390;BME280;12510;56.468;-3.004;2023-02-13T00:29:31;102155.56;;;19.24;59.20
24390;BME280;12510;56.468;-3.004;2023-02-13T00:31:57;102148.06;;;18.47;59.42
24390;BME280;12510;56.468;-3.004;2023-02-13T00:34:25;102167.88;;;15.93;64.63
24390;BME280;12510;56.468;-3.004;2023-02-13T00:36:51;102164.94;;;15.65;67.04
24390;BME280;12510;56.468;-3.004;2023-02-13T00:39:17;102169.53;;;15.63;68.39
24390;BME280;12510;56.468;-3.004;2023-02-13T00:41:44;102167.63;;;14.58;71.54
24390;BME280;12510;56.468;-3.004;2023-02-13T00:44:10;102164.53;;;14.64;73.13
24390;BME280;12510;56.468;-3.004;2023-02-13T00:46:37;102166.78;;;15.22;70.99
24390;BME280;12510;56.468;-3.004;2023-02-13T00:49:04;102140.50;;;18.24;63.46
24390;BME280;12510;56.468;-3.004;2023-02-13T00:51:34;102132.75;;;17.28;57.00
24390;BME280;12510;56.468;-3.004;2023-02-13T00:54:00;102154.66;;;15.51;64.38
24390;BME280;12510;56.468;-3.004;2023-02-13T00:56:27;102152.44;;;14.71;70.24
24390;BME280;12510;56.468;-3.004;2023-02-13T00:58:53;102159.72;;;14.35;72.62
24390;BME280;12510;56.468;-3.004;2023-02-13T01:01:20;102161.47;;;15.44;68.85
24390;BME280;12510;56.468;-3.004;2023-02-13T01:03:46;102151.13;;;15.19;67.68
24390;BME280;12510;56.468;-3.004;2023-02-13T01:06:13;102149.25;;;15.83;68.17
24390;BME280;12510;56.468;-3.004;2023-02-13T01:08:39;102141.56;;;16.31;64.28
24390;BME280;12510;56.468;-3.004;2023-02-13T01:11:06;102138.16;;;17.46;59.54
24390;BME280;12510;56.468;-3.004;2023-02-13T01:13:33;102129.34;;;17.36;59.51
24390;BME280;12510;56.468;-3.004;2023-02-13T01:15:59;102123.75;;;17.76;57.86
24390;BME280;12510;56.468;-3.004;2023-02-13T01:18:26;102124.53;;;17.49;57.34
24390;BME280;12510;56.468;-3.004;2023-02-13T01:20:59;102111.94;;;18.07;56.36
24390;BME280;12510;56.468;-3.004;2023-02-13T01:23:32;102120.16;;;17.96;55.94
24390;BME280;12510;56.468;-3.004;2023-02-13T01:25:59;102116.81;;;17.84;56.69
24390;BME280;12510;56.468;-3.004;2023-02-13T01:28:26;102114.69;;;17.59;56.60
24390;BME280;12510;56.468;-3.004;2023-02-13T01:30:54;102116.41;;;17.79;56.45
24390;BME280;12510;56.468;-3.004;2023-02-13T01:33:22;102126.19;;;15.11;62.52
24390;BME280;12510;56.468;-3.004;2023-02-13T01:35:49;102147.16;;;14.49;67.16
24390;BME280;12510;56.468;-3.004;2023-02-13T01:38:16;102146.81;;;14.42;68.97
24390;BME280;12510;56.468;-3.004;2023-02-13T01:40:45;102138.66;;;14.99;66.99
24390;BME280;12510;56.468;-3.004;2023-02-13T01:43:12;102138.75;;;15.08;66.69
24390;BME280;12510;56.468;-3.004;2023-02-13T01:45:38;102143.50;;;14.72;68.65
24390;BME280;12510;56.468;-3.004;2023-02-13T01:48:11;102140.06;;;15.14;67.25
24390;BME280;12510;56.468;-3.004;2023-02-13T01:51:02;102139.78;;;14.96;67.72
24390;BME280;12510;56.468;-3.004;2023-02-13T01:53:34;102139.28;;;15.02;66.98
24390;BME280;12510;56.468;-3.004;2023-02-13T01:56:25;102134.88;;;14.91;66.82
24390;BME280;12510;56.468;-3.004;2023-02-13T01:58:58;102123.97;;;15.58;62.76
24390;BME280;12510;56.468;-3.004;2023-02-13T02:01:25;102128.19;;;14.97;65.56
24390;BME280;12510;56.468;-3.004;2023-02-13T02:03:58;102113.44;;;16.28;57.77
24390;BME280;12510;56.468;-3.004;2023-02-13T02:06:32;102119.59;;;14.84;64.82
24390;BME280;12510;56.468;-3.004;2023-02-13T02:09:04;102123.78;;;14.86;65.96
24390;BME280;12510;56.468;-3.004;2023-02-13T02:14:06;102134.97;;;15.32;63.50
24390;BME280;12510;56.468;-3.004;2023-02-13T02:16:36;102127.06;;;14.79;65.77
24390;BME280;12510;56.468;-3.004;2023-02-13T02:19:07;102125.00;;;14.82;65.53
24390;BME280;12510;56.468;-3.004;2023-02-13T02:21:55;102120.25;;;14.97;65.87
24390;BME280;12510;56.468;-3.004;2023-02-13T02:24:53;102127.88;;;15.33;65.05
24390;BME280;12510;56.468;-3.004;2023-02-13T02:27:39;102121.41;;;15.25;64.49
24390;BME280;12510;56.468;-3.004;2023-02-13T02:32:49;102125.13;;;16.06;65.85
24390;BME280;12510;56.468;-3.004;2023-02-13T02:36:13;102114.56;;;15.02;66.47
24390;BME280;12510;56.468;-3.004;2023-02-13T02:41:34;102120.88;;;14.57;67.18
24390;BME280;12510;56.468;-3.004;2023-02-13T02:47:08;102115.03;;;14.74;67.09
24390;BME280;12510;56.468;-3.004;2023-02-13T02:50:13;102112.97;;;15.72;65.47
24390;BME280;12510;56.468;-3.004;2023-02-13T02:55:46;102110.97;;;14.27;70.53
24390;BME280;12510;56.468;-3.004;2023-02-13T02:58:20;102107.47;;;15.33;65.57
24390;BME280;12510;56.468;-3.004;2023-02-13T03:01:09;102107.97;;;14.64;67.13
24390;BME280;12510;56.468;-3.004;2023-02-13T03:03:58;102087.81;;;17.53;64.06
24390;BME280;12510;56.468;-3.004;2023-02-13T03:06:53;102100.47;;;14.25;68.33
24390;BME280;12510;56.468;-3.004;2023-02-13T03:09:27;102105.94;;;14.01;70.06
24390;BME280;12510;56.468;-3.004;2023-02-13T03:12:20;102099.56;;;14.03;69.00
24390;BME280;12510;56.468;-3.004;2023-02-13T03:15:08;102111.41;;;13.88;71.14
24390;BME280;12510;56.468;-3.004;2023-02-13T03:17:35;102102.72;;;13.97;70.60
24390;BME280;12510;56.468;-3.004;2023-02-13T03:23:13;102098.03;;;13.89;71.67
24390;BME280;12510;56.468;-3.004;2023-02-13T03:33:54;102119.22;;;13.78;71.73
24390;BME280;12510;56.468;-3.004;2023-02-13T03:41:59;102107.78;;;13.44;71.64
24390;BME280;12510;56.468;-3.004;2023-02-13T03:44:35;102087.47;;;17.93;55.72
24390;BME280;12510;56.468;-3.004;2023-02-13T03:47:05;102078.63;;;17.65;55.55
24390;BME280;12510;56.468;-3.004;2023-02-13T03:49:41;102082.44;;;17.25;56.80
24390;BME280;12510;56.468;-3.004;2023-02-13T03:52:32;102085.88;;;15.17;58.05
24390;BME280;12510;56.468;-3.004;2023-02-13T03:57:47;102102.13;;;13.82;65.96
24390;BME280;12510;56.468;-3.004;2023-02-13T04:00:43;102070.00;;;17.53;58.77
24390;BME280;12510;56.468;-3.004;2023-02-13T04:05:50;102055.78;;;17.90;53.29
24390;BME280;12510;56.468;-3.004;2023-02-13T04:08:18;102058.44;;;18.18;52.70
24390;BME280;12510;56.468;-3.004;2023-02-13T04:13:55;102094.44;;;13.56;63.79
24390;BME280;12510;56.468;-3.004;2023-02-13T04:16:32;102094.94;;;12.68;71.46
24390;BME280;12510;56.468;-3.004;2023-02-13T04:19:00;102093.81;;;12.59;72.79
24390;BME280;12510;56.468;-3.004;2023-02-13T04:21:32;102099.69;;;12.51;73.58
24390;BME280;12510;56.468;-3.004;2023-02-13T04:23:58;102091.75;;;12.51;74.55
24390;BME280;12510;56.468;-3.004;2023-02-13T04:26:31;102091.16;;;12.59;73.93
24390;BME280;12510;56.468;-3.004;2023-02-13T04:28:58;102085.84;;;12.48;74.35
24390;BME280;12510;56.468;-3.004;2023-02-13T04:31:24;102092.59;;;12.28;74.55
24390;BME280;12510;56.468;-3.004;2023-02-13T04:33:51;102080.06;;;12.18;75.23
24390;BME280;12510;56.468;-3.004;2023-02-13T04:36:17;102081.66;;;12.08;76.19
24390;BME280;12510;56.468;-3.004;2023-02-13T04:38:43;102089.53;;;11.97;77.73
24390;BME280;12510;56.468;-3.004;2023-02-13T04:41:11;102078.50;;;14.13;78.17
24390;BME280;12510;56.468;-3.004;2023-02-13T04:43:38;102084.38;;;12.19;75.69
24390;BME280;12510;56.468;-3.004;2023-02-13T04:46:04;102091.84;;;11.88;77.20
24390;BME280;12510;56.468;-3.004;2023-02-13T04:48:30;102061.22;;;13.86;63.04
24390;BME280;12510;56.468;-3.004;2023-02-13T04:50:57;102074.78;;;11.68;75.91
24390;BME280;12510;56.468;-3.004;2023-02-13T04:53:23;102069.22;;;11.47;77.78
24390;BME280;12510;56.468;-3.004;2023-02-13T04:55:50;102077.41;;;11.55;76.90
24390;BME280;12510;56.468;-3.004;2023-02-13T04:58:17;102059.38;;;12.61;64.90
24390;BME280;12510;56.468;-3.004;2023-02-13T05:00:43;102073.66;;;11.34;75.74
24390;BME280;12510;56.468;-3.004;2023-02-13T05:03:12;102067.06;;;12.64;75.75
24390;BME280;12510;56.468;-3.004;2023-02-13T05:05:38;102076.81;;;11.13;76.77
24390;BME280;12510;56.468;-3.004;2023-02-13T05:08:06;102060.50;;;13.39;69.52
24390;BME280;12510;56.468;-3.004;2023-02-13T05:10:33;102054.97;;;13.65;66.38
24390;BME280;12510;56.468;-3.004;2023-02-13T05:13:00;102057.38;;;13.68;64.70
24390;BME280;12510;56.468;-3.004;2023-02-13T05:15:27;102061.47;;;13.61;65.03
24390;BME280;12510;56.468;-3.004;2023-02-13T05:17:53;102054.63;;;13.47;64.31
24390;BME280;12510;56.468;-3.004;2023-02-13T05:20:20;102066.75;;;11.57;68.43
24390;BME280;12510;56.468;-3.004;2023-02-13T05:22:51;102067.16;;;10.73;76.21
24390;BME280;12510;56.468;-3.004;2023-02-13T05:25:38;102074.88;;;10.49;79.09
24390;BME280;12510;56.468;-3.004;2023-02-13T05:28:05;102082.44;;;10.41;80.02
24390;BME280;12510;56.468;-3.004;2023-02-13T05:30:54;102070.13;;;10.42;80.94
24390;BME280;12510;56.468;-3.004;2023-02-13T05:33:21;102071.00;;;10.55;78.44
24390;BME280;12510;56.468;-3.004;2023-02-13T05:35:48;102065.91;;;10.24;81.47
24390;BME280;12510;56.468;-3.004;2023-02-13T05:38:14;102069.66;;;13.57;78.94
24390;BME280;12510;56.468;-3.004;2023-02-13T05:40:40;102041.63;;;13.66;59.56
24390;BME280;12510;56.468;-3.004;2023-02-13T05:43:07;102066.44;;;10.30;76.70
24390;BME280;12510;56.468;-3.004;2023-02-13T05:45:33;102071.13;;;10.12;78.60
24390;BME280;12510;56.468;-3.004;2023-02-13T05:48:00;102061.31;;;9.86;83.04
24390;BME280;12510;56.468;-3.004;2023-02-13T05:50:26;102067.88;;;10.35;79.11
24390;BME280;12510;56.468;-3.004;2023-02-13T05:52:54;102081.53;;;9.71;86.18
24390;BME280;12510;56.468;-3.004;2023-02-13T05:55:21;102048.09;;;15.03;61.97
24390;BME280;12510;56.468;-3.004;2023-02-13T05:57:47;102078.38;;;9.94;78.81
24390;BME280;12510;56.468;-3.004;2023-02-13T06:00:14;102074.31;;;9.61;84.30
24390;BME280;12510;56.468;-3.004;2023-02-13T06:02:41;102081.44;;;9.59;85.70
24390;BME280;12510;56.468;-3.004;2023-02-13T06:05:07;102075.47;;;9.98;83.89
24390;BME280;12510;56.468;-3.004;2023-02-13T06:07:34;102080.31;;;9.34;91.61
24390;BME280;12510;56.468;-3.004;2023-02-13T06:10:00;102085.38;;;9.51;91.69
24390;BME280;12510;56.468;-3.004;2023-02-13T06:12:26;102074.66;;;9.69;88.69
24390;BME280;12510;56.468;-3.004;2023-02-13T06:14:53;102085.75;;;9.60;88.23
24390;BME280;12510;56.468;-3.004;2023-02-13T06:17:19;102081.88;;;9.51;89.04
24390;BME280;12510;56.468;-3.004;2023-02-13T06:19:46;102083.22;;;9.58;90.18
24390;BME280;12510;56.468;-3.004;2023-02-13T06:22:12;102084.03;;;9.44;91.61
24390;BME280;12510;56.468;-3.004;2023-02-13T06:24:39;102085.66;;;9.47;91.77
24390;BME280;12510;56.468;-3.004;2023-02-13T06:27:05;102077.19;;;9.56;90.73
24390;BME280;12510;56.468;-3.004;2023-02-13T06:29:31;102065.72;;;10.82;84.96
24390;BME280;12510;56.468;-3.004;2023-02-13T06:31:58;102057.06;;;11.45;79.62
24390;BME280;12510;56.468;-3.004;2023-02-13T06:34:24;102068.28;;;9.44;89.44
24390;BME280;12510;56.468;-3.004;2023-02-13T06:36:51;102058.13;;;11.03;80.53
24390;BME280;12510;56.468;-3.004;2023-02-13T06:39:17;102069.13;;;9.59;85.76
24390;BME280;12510;56.468;-3.004;2023-02-13T06:41:44;102064.25;;;9.38;88.67
24390;BME280;12510;56.468;-3.004;2023-02-13T06:44:10;102068.63;;;11.68;94.09
24390;BME280;12510;56.468;-3.004;2023-02-13T06:46:37;102074.59;;;10.12;90.67
24390;BME280;12510;56.468;-3.004;2023-02-13T06:49:03;102063.25;;;10.66;83.05
24390;BME280;12510;56.468;-3.004;2023-02-13T06:51:30;102052.19;;;10.74;81.07
24390;BME280;12510;56.468;-3.004;2023-02-13T06:53:56;102061.06;;;10.73;80.23
24390;BME280;12510;56.468;-3.004;2023-02-13T06:56:22;102062.19;;;10.69;79.70
24390;BME280;12510;56.468;-3.004;2023-02-13T06:58:51;102073.28;;;10.47;83.71
24390;BME280;12510;56.468;-3.004;2023-02-13T07:01:17;102080.00;;;9.24;87.99
24390;BME280;12510;56.468;-3.004;2023-02-13T07:03:44;102093.28;;;8.92;92.55
24390;BME280;12510;56.468;-3.004;2023-02-13T07:06:16;102088.03;;;9.06;93.66
24390;BME280;12510;56.468;-3.004;2023-02-13T07:08:43;102097.13;;;9.01;94.69
24390;BME280;12510;56.468;-3.004;2023-02-13T07:11:17;102100.25;;;9.08;93.65
24390;BME280;12510;56.468;-3.004;2023-02-13T07:13:44;102100.19;;;8.93;94.46
24390;BME280;12510;56.468;-3.004;2023-02-13T07:16:11;102110.56;;;8.96;94.16
24390;BME280;12510;56.468;-3.004;2023-02-13T07:18:37;102092.22;;;9.83;85.13
24390;BME280;12510;56.468;-3.004;2023-02-13T07:21:04;102096.78;;;9.07;92.72
24390;BME280;12510;56.468;-3.004;2023-02-13T07:23:30;102095.53;;;8.98;95.81
24390;BME280;12510;56.468;-3.004;2023-02-13T07:26:00;102093.88;;;9.12;96.12
24390;BME280;12510;56.468;-3.004;2023-02-13T07:28:28;102106.06;;;12.12;93.98
24390;BME280;12510;56.468;-3.004;2023-02-13T07:30:55;102112.13;;;9.29;95.78
24390;BME280;12510;56.468;-3.004;2023-02-13T07:33:23;102106.63;;;10.88;88.25
24390;BME280;12510;56.468;-3.004;2023-02-13T07:35:50;102116.00;;;9.81;94.95
24390;BME280;12510;56.468;-3.004;2023-02-13T07:38:17;102125.28;;;9.87;97.70
24390;BME280;12510;56.468;-3.004;2023-02-13T07:40:44;102129.16;;;9.96;99.02
24390;BME280;12510;56.468;-3.004;2023-02-13T07:43:12;102128.19;;;10.80;98.75
24390;BME280;12510;56.468;-3.004;2023-02-13T07:45:38;102129.22;;;10.09;100.00
24390;BME280;12510;56.468;-3.004;2023-02-13T07:48:05;102128.47;;;10.21;100.00
24390;BME280;12510;56.468;-3.004;2023-02-13T07:50:31;102117.94;;;12.54;91.01
24390;BME280;12510;56.468;-3.004;2023-02-13T07:52:59;102124.63;;;10.94;92.86
24390;BME280;12510;56.468;-3.004;2023-02-13T07:55:27;102138.13;;;10.89;98.93
24390;BME280;12510;56.468;-3.004;2023-02-13T07:57:54;102126.56;;;13.63;97.99
24390;BME280;12510;56.468;-3.004;2023-02-13T08:00:21;102128.34;;;12.20;92.55
24390;BME280;12510;56.468;-3.004;2023-02-13T08:02:47;102122.50;;;12.52;91.18
24390;BME280;12510;56.468;-3.004;2023-02-13T08:05:14;102133.25;;;11.62;95.62
24390;BME280;12510;56.468;-3.004;2023-02-13T08:07:40;102142.75;;;11.39;99.03
24390;BME280;12510;56.468;-3.004;2023-02-13T08:10:07;102139.16;;;11.53;100.00
24390;BME280;12510;56.468;-3.004;2023-02-13T08:12:53;102142.94;;;11.74;99.13
24390;BME280;12510;56.468;-3.004;2023-02-13T08:15:20;102138.09;;;12.07;94.67
24390;BME280;12510;56.468;-3.004;2023-02-13T08:17:46;102137.16;;;11.69;100.00
24390;BME280;12510;56.468;-3.004;2023-02-13T08:20:12;102145.91;;;11.96;100.00
24390;BME280;12510;56.468;-3.004;2023-02-13T08:22:39;102142.09;;;12.13;100.00
24390;BME280;12510;56.468;-3.004;2023-02-13T08:25:06;102134.34;;;12.71;93.64
24390;BME280;12510;56.468;-3.004;2023-02-13T08:27:33;102139.06;;;12.30;98.72
24390;BME280;12510;56.468;-3.004;2023-02-13T08:29:59;102131.84;;;14.08;89.79
24390;BME280;12510;56.468;-3.004;2023-02-13T08:32:27;102121.88;;;14.45;86.68
24390;BME280;12510;56.468;-3.004;2023-02-13T08:34:53;102139.84;;;12.92;94.57
24390;BME280;12510;56.468;-3.004;2023-02-13T08:37:20;102137.34;;;15.56;97.05
24390;BME280;12510;56.468;-3.004;2023-02-13T08:39:46;102135.31;;;12.94;95.02
24390;BME280;12510;56.468;-3.004;2023-02-13T08:42:12;102139.34;;;12.87;100.00
24390;BME280;12510;56.468;-3.004;2023-02-13T08:44:39;102130.63;;;12.73;100.00
24390;BME280;12510;56.468;-3.004;2023-02-13T08:47:08;102134.47;;;12.69;100.00
24390;BME280;12510;56.468;-3.004;2023-02-13T08:49:34;102132.31;;;12.99;99.51
24390;BME280;12510;56.468;-3.004;2023-02-13T08:52:02;102138.09;;;13.51;100.00
24390;BME280;12510;56.468;-3.004;2023-02-13T08:54:29;102114.13;;;15.80;85.07
24390;BME280;12510;56.468;-3.004;2023-02-13T08:56:56;102131.25;;;13.48;96.78
24390;BME280;12510;56.468;-3.004;2023-02-13T08:59:23;102138.94;;;13.51;98.35
24390;BME280;12510;56.468;-3.004;2023-02-13T09:01:49;102133.28;;;13.90;95.97
24390;BME280;12510;56.468;-3.004;2023-02-13T09:04:16;102130.06;;;13.75;96.76
24390;BME280;12510;56.468;-3.004;2023-02-13T09:06:43;102116.19;;;14.05;90.60
24390;BME280;12510;56.468;-3.004;2023-02-13T09:09:10;102106.59;;;13.70;88.58
24390;BME280;12510;56.468;-3.004;2023-02-13T09:11:37;102126.22;;;13.90;92.98
24390;BME280;12510;56.468;-3.004;2023-02-13T09:14:03;102125.72;;;13.85;96.32
24390;BME280;12510;56.468;-3.004;2023-02-13T09:16:30;102113.78;;;14.02;92.12
24390;BME280;12510;56.468;-3.004;2023-02-13T09:18:56;102118.84;;;14.05;91.20
24390;BME280;12510;56.468;-3.004;2023-02-13T09:21:23;102102.25;;;15.22;78.42
24390;BME280;12510;56.468;-3.004;2023-02-13T09:23:50;102108.41;;;14.36;88.44
24390;BME280;12510;56.468;-3.004;2023-02-13T09:26:18;102118.22;;;14.57;91.88
24390;BME280;12510;56.468;-3.004;2023-02-13T09:28:44;102100.38;;;16.15;84.71
24390;BME280;12510;56.468;-3.004;2023-02-13T09:31:18;102104.19;;;14.78;86.45
24390;BME280;12510;56.468;-3.004;2023-02-13T09:33:47;102097.88;;;14.14;83.74
24390;BME280;12510;56.468;-3.004;2023-02-13T09:36:19;102102.19;;;15.12;86.01
24390;BME280;12510;56.468;-3.004;2023-02-13T09:38:54;102106.38;;;14.29;87.09
24390;BME280;12510;56.468;-3.004;2023-02-13T09:49:54;102083.09;;;16.60;78.13
24390;BME280;12510;56.468;-3.004;2023-02-13T09:52:22;102086.72;;;13.99;83.34
24390;BME280;12510;56.468;-3.004;2023-02-13T09:54:49;102090.06;;;14.12;86.67
24390;BME280;12510;56.468;-3.004;2023-02-13T09:57:20;102087.94;;;14.92;80.88
24390;BME280;12510;56.468;-3.004;2023-02-13T10:00:20;102080.78;;;15.04;80.19
24390;BME280;12510;56.468;-3.004;2023-02-13T10:08:24;102083.69;;;14.47;79.40
24390;BME280;12510;56.468;-3.004;2023-02-13T10:10:56;102052.53;;;18.51;65.65
24390;BME280;12510;56.468;-3.004;2023-02-13T10:13:42;102072.69;;;14.84;78.62
24390;BME280;12510;56.468;-3.004;2023-02-13T10:19:03;102075.41;;;14.40;84.61
24390;BME280;12510;56.468;-3.004;2023-02-13T10:21:45;102076.91;;;14.87;82.75
24390;BME280;12510;56.468;-3.004;2023-02-13T10:24:36;102081.47;;;15.27;80.09
24390;BME280;12510;56.468;-3.004;2023-02-13T10:29:52;102044.72;;;20.80;58.07
24390;BME280;12510;56.468;-3.004;2023-02-13T10:32:55;102076.88;;;16.01;71.30
24390;BME280;12510;56.468;-3.004;2023-02-13T10:38:16;102078.19;;;17.42;76.28
24390;BME280;12510;56.468;-3.004;2023-02-13T10:43:23;102085.06;;;14.95;73.72
24390;BME280;12510;56.468;-3.004;2023-02-13T10:46:04;102090.41;;;15.57;75.72
24390;BME280;12510;56.468;-3.004;2023-02-13T10:49:03;102088.72;;;15.25;77.39
24390;BME280;12510;56.468;-3.004;2023-02-13T10:57:21;102081.34;;;16.00;70.67
24390;BME280;12510;56.468;-3.004;2023-02-13T11:02:48;102085.84;;;15.69;73.95
24390;BME280;12510;56.468;-3.004;2023-02-13T11:05:21;102075.19;;;17.07;71.21
24390;BME280;12510;56.468;-3.004;2023-02-13T11:07:49;102063.63;;;16.69;66.13
24390;BME280;12510;56.468;-3.004;2023-02-13T11:10:21;102072.84;;;16.75;66.90
24390;BME280;12510;56.468;-3.004;2023-02-13T11:12:48;102072.50;;;15.49;68.61
24390;BME280;12510;56.468;-3.004;2023-02-13T11:15:23;102066.31;;;15.80;69.24
24390;BME280;12510;56.468;-3.004;2023-02-13T11:17:53;102068.09;;;15.38;71.63
24390;BME280;12510;56.468;-3.004;2023-02-13T11:22:50;102065.44;;;16.20;71.95
24390;BME280;12510;56.468;-3.004;2023-02-13T11:25:23;102067.19;;;14.97;73.87
24390;BME280;12510;56.468;-3.004;2023-02-13T11:28:03;102066.28;;;15.08;74.64
24390;BME280;12510;56.468;-3.004;2023-02-13T11:30:35;102070.06;;;14.84;74.56
24390;BME280;12510;56.468;-3.004;2023-02-13T11:33:21;102050.88;;;16.83;62.67
24390;BME280;12510;56.468;-3.004;2023-02-13T11:35:48;102066.78;;;15.54;68.71
24390;BME280;12510;56.468;-3.004;2023-02-13T11:40:45;102059.69;;;15.02;73.07
24390;BME280;12510;56.468;-3.004;2023-02-13T11:43:18;102051.22;;;15.80;74.43
24390;BME280;12510;56.468;-3.004;2023-02-13T11:48:41;102069.06;;;14.64;75.93
24390;BME280;12510;56.468;-3.004;2023-02-13T11:51:08;102065.81;;;14.49;75.72
24390;BME280;12510;56.468;-3.004;2023-02-13T11:53:39;102061.19;;;14.74;76.00
24390;BME280;12510;56.468;-3.004;2023-02-13T11:56:14;102049.19;;;15.22;72.95
24390;BME280;12510;56.468;-3.004;2023-02-13T11:58:41;102050.94;;;15.42;73.00
24390;BME280;12510;56.468;-3.004;2023-02-13T12:04:17;102047.28;;;14.82;73.18
24390;BME280;12510;56.468;-3.004;2023-02-13T12:07:31;102045.19;;;13.77;79.50
24390;BME280;12510;56.468;-3.004;2023-02-13T12:10:04;102041.84;;;13.40;85.21
24390;BME280;12510;56.468;-3.004;2023-02-13T12:12:41;102036.56;;;14.51;80.40
24390;BME280;12510;56.468;-3.004;2023-02-13T12:15:30;102030.44;;;14.71;75.21
24390;BME280;12510;56.468;-3.004;2023-02-13T12:20:26;102040.28;;;14.81;73.78
24390;BME280;12510;56.468;-3.004;2023-02-13T12:28:45;102033.06;;;14.50;78.54
24390;BME280;12510;56.468;-3.004;2023-02-13T12:36:46;102018.94;;;14.82;74.16
24390;BME280;12510;56.468;-3.004;2023-02-13T12:44:52;102020.34;;;15.38;72.78
24390;BME280;12510;56.468;-3.004;2023-02-13T12:47:25;102014.09;;;17.16;72.44
24390;BME280;12510;56.468;-3.004;2023-02-13T12:50:16;102012.13;;;14.89;75.14
24390;BME280;12510;56.468;-3.004;2023-02-13T12:53:11;102015.03;;;14.44;75.51
24390;BME280;12510;56.468;-3.004;2023-02-13T12:56:06;101984.63;;;18.01;63.43
24390;BME280;12510;56.468;-3.004;2023-02-13T13:04:19;102009.78;;;13.89;77.25
24390;BME280;12510;56.468;-3.004;2023-02-13T13:26:22;101980.53;;;15.07;71.10
24390;BME280;12510;56.468;-3.004;2023-02-13T13:28:55;101987.16;;;14.50;75.03
24390;BME280;12510;56.468;-3.004;2023-02-13T13:31:25;101984.38;;;14.30;78.78
24390;BME280;12510;56.468;-3.004;2023-02-13T13:33:55;101977.41;;;14.93;74.55
24390;BME280;12510;56.468;-3.004;2023-02-13T13:36:44;101964.69;;;14.96;73.98
24390;BME280;12510;56.468;-3.004;2023-02-13T13:40:15;101964.94;;;15.14;69.71
24390;BME280;12510;56.468;-3.004;2023-02-13T13:51:00;101961.16;;;14.22;76.59
24390;BME280;12510;56.468;-3.004;2023-02-13T13:53:27;101952.91;;;14.58;76.60
24390;BME280;12510;56.468;-3.004;2023-02-13T13:58:35;101936.22;;;15.39;72.22
24390;BME280;12510;56.468;-3.004;2023-02-13T14:03:45;101928.53;;;14.22;77.28
24390;BME280;12510;56.468;-3.004;2023-02-13T14:06:14;101924.53;;;15.01;73.94
24390;BME280;12510;56.468;-3.004;2023-02-13T14:11:38;101932.09;;;14.32;77.49
24390;BME280;12510;56.468;-3.004;2023-02-13T14:16:57;101916.25;;;15.35;72.51
24390;BME280;12510;56.468;-3.004;2023-02-13T14:19:31;101915.31;;;13.89;75.39
24390;BME280;12510;56.468;-3.004;2023-02-13T14:24:59;101915.28;;;15.36;70.28
24390;BME280;12510;56.468;-3.004;2023-02-13T14:27:36;101914.91;;;15.09;71.76
24390;BME280;12510;56.468;-3.004;2023-02-13T14:30:25;101911.78;;;15.45;72.02
24390;BME280;12510;56.468;-3.004;2023-02-13T14:32:52;101905.88;;;15.22;71.77
24390;BME280;12510;56.468;-3.004;2023-02-13T14:35:25;101913.06;;;14.69;73.57
24390;BME280;12510;56.468;-3.004;2023-02-13T14:37:57;101905.91;;;15.41;70.66
24390;BME280;12510;56.468;-3.004;2023-02-13T14:43:37;101898.38;;;15.37;71.18
24390;BME280;12510;56.468;-3.004;2023-02-13T14:48:44;101894.31;;;14.92;72.16
24390;BME280;12510;56.468;-3.004;2023-02-13T14:51:29;101893.13;;;15.06;72.73
24390;BME280;12510;56.468;-3.004;2023-02-13T14:54:29;101886.56;;;15.80;70.40
24390;BME280;12510;56.468;-3.004;2023-02-13T14:58:06;101879.81;;;15.66;70.02
24390;BME280;12510;56.468;-3.004;2023-02-13T15:02:45;101877.47;;;17.61;61.34
24390;BME280;12510;56.468;-3.004;2023-02-13T15:05:16;101897.25;;;14.89;71.41
24390;BME280;12510;56.468;-3.004;2023-02-13T15:07:49;101889.84;;;14.62;72.35
24390;BME280;12510;56.468;-3.004;2023-02-13T15:13:04;101885.50;;;15.32;69.54
24390;BME280;12510;56.468;-3.004;2023-02-13T15:15:33;101895.34;;;14.49;74.94
24390;BME280;12510;56.468;-3.004;2023-02-13T15:18:10;101896.41;;;14.57;74.76
24390;BME280;12510;56.468;-3.004;2023-02-13T15:20:42;101881.25;;;14.69;73.95
24390;BME280;12510;56.468;-3.004;2023-02-13T15:23:21;101881.91;;;14.93;72.96
24390;BME280;12510;56.468;-3.004;2023-02-13T15:26:05;101887.88;;;14.85;73.69
24390;BME280;12510;56.468;-3.004;2023-02-13T15:28:33;101885.91;;;14.77;73.11
24390;BME280;12510;56.468;-3.004;2023-02-13T15:31:03;101880.34;;;14.80;73.22
24390;BME280;12510;56.468;-3.004;2023-02-13T15:33:43;101880.16;;;14.72;74.13
24390;BME280;12510;56.468;-3.004;2023-02-13T15:36:25;101891.66;;;14.82;73.65
24390;BME280;12510;56.468;-3.004;2023-02-13T15:38:59;101884.16;;;14.45;73.47
24390;BME280;12510;56.468;-3.004;2023-02-13T15:41:33;101880.66;;;14.35;74.80
24390;BME280;12510;56.468;-3.004;2023-02-13T15:44:01;101881.59;;;14.55;74.88